createdAt,value
2022-08-16T00:00:22.040Z,100399.28
2022-08-16T00:02:50.646Z,100405.13
2022-08-16T00:05:21.392Z,100403.41
2022-08-16T00:07:49.386Z,100398.81
2022-08-16T00:10:26.758Z,100397.97
2022-08-16T00:12:57.131Z,100405.97
2022-08-16T00:15:51.576Z,100404.94
2022-08-16T00:18:26.083Z,100402.41
2022-08-16T00:20:57.663Z,100404.63
2022-08-16T00:23:34.644Z,100403.50
2022-08-16T00:26:36.329Z,100406.41
2022-08-16T00:28:55.088Z,100414.44
2022-08-16T00:31:24.215Z,100413.06
2022-08-16T00:33:51.878Z,100417.41
2022-08-16T00:36:19.862Z,100409.75
2022-08-16T00:38:47.705Z,100413.72
2022-08-16T00:41:15.510Z,100408.44
2022-08-16T00:43:45.805Z,100416.47
2022-08-16T00:46:33.903Z,100411.16
2022-08-16T00:49:18.805Z,100416.28
2022-08-16T00:51:55.127Z,100413.75
2022-08-16T00:54:27.397Z,100411.03
2022-08-16T00:57:00.212Z,100407.16
2022-08-16T00:59:33.110Z,100408.56
2022-08-16T01:02:30.327Z,100415.22
2022-08-16T01:05:10.541Z,100410.13
2022-08-16T01:07:52.197Z,100408.44
2022-08-16T01:10:32.136Z,100404.88
2022-08-16T01:13:18.300Z,100416.13
2022-08-16T01:15:54.544Z,100418.84
2022-08-16T01:18:40.720Z,100430.78
2022-08-16T01:21:54.559Z,100424.66
2022-08-16T01:24:52.295Z,100435.09
2022-08-16T01:27:29.145Z,100437.13
2022-08-16T01:30:20.403Z,100445.16
2022-08-16T01:33:01.840Z,100441.75
2022-08-16T01:35:56.211Z,100439.84
2022-08-16T01:38:31.550Z,100450.97
2022-08-16T01:41:19.350Z,100444.81
2022-08-16T01:43:54.294Z,100453.00
2022-08-16T01:46:39.567Z,100452.16
2022-08-16T01:50:40.580Z,100445.88
2022-08-16T01:52:29.327Z,100452.84
2022-08-16T01:55:23.261Z,100455.56
2022-08-16T01:57:53.244Z,100462.69
2022-08-16T02:00:29.418Z,100456.22
2022-08-16T02:02:59.081Z,100453.50
2022-08-16T02:05:30.802Z,100455.56
2022-08-16T02:07:58.872Z,100454.88
2022-08-16T02:10:27.169Z,100457.78
2022-08-16T02:13:00.065Z,100458.81
2022-08-16T02:15:35.385Z,100461.38
2022-08-16T02:18:05.656Z,100457.63
2022-08-16T02:20:39.589Z,100460.50
2022-08-16T02:23:10.580Z,100460.88
2022-08-16T02:25:52.407Z,100461.91
2022-08-16T02:28:24.521Z,100459.16
2022-08-16T02:30:54.886Z,100452.72
2022-08-16T02:33:24.818Z,100451.19
2022-08-16T02:36:47.400Z,100457.00
2022-08-16T02:39:04.439Z,100455.66
2022-08-16T02:41:31.500Z,100462.97
2022-08-16T02:44:01.378Z,100463.84
2022-08-16T02:46:33.299Z,100463.31
2022-08-16T02:49:03.096Z,100467.09
2022-08-16T02:51:35.785Z,100461.81
2022-08-16T02:54:03.935Z,100473.72
2022-08-16T02:56:33.188Z,100473.25
2022-08-16T02:59:00.707Z,100478.88
2022-08-16T03:01:36.760Z,100481.75
2022-08-16T03:04:39.450Z,100475.47
2022-08-16T03:07:12.053Z,100471.72
2022-08-16T03:09:48.784Z,100475.97
2022-08-16T03:12:30.211Z,100479.38
2022-08-16T03:15:07.310Z,100471.72
2022-08-16T03:17:36.765Z,100466.66
2022-08-16T03:20:20.832Z,100465.13
2022-08-16T03:23:02.237Z,100461.69
2022-08-16T03:25:40.935Z,100472.78
2022-08-16T03:28:11.931Z,100464.97
2022-08-16T03:30:40.870Z,100476.00
2022-08-16T03:33:10.783Z,100481.66
2022-08-16T03:35:59.425Z,100480.63
2022-08-16T03:38:49.135Z,100482.66
2022-08-16T03:41:25.723Z,100480.47
2022-08-16T03:43:59.888Z,100479.28
2022-08-16T03:46:47.236Z,100482.22
2022-08-16T03:49:22.461Z,100487.66
2022-08-16T03:51:52.488Z,100487.66
2022-08-16T03:54:23.440Z,100493.09
2022-08-16T03:56:56.853Z,100492.25
2022-08-16T03:59:29.482Z,100498.75
2022-08-16T04:02:01.293Z,100504.34
2022-08-16T04:04:33.334Z,100499.25
2022-08-16T04:07:07.204Z,100495.03
2022-08-16T04:09:38.703Z,100504.19
2022-08-16T04:13:04.266Z,100500.81
2022-08-16T04:15:02.782Z,100500.97
2022-08-16T04:17:35.082Z,100496.22
2022-08-16T04:20:23.766Z,100484.50
2022-08-16T04:22:56.187Z,100487.56
2022-08-16T04:25:24.704Z,100488.41
2022-08-16T04:27:56.059Z,100492.16
2022-08-16T04:30:31.659Z,100501.66
2022-08-16T04:33:00.736Z,100502.88
2022-08-16T04:35:34.363Z,100511.06
2022-08-16T04:38:10.525Z,100514.63
2022-08-16T04:40:48.119Z,100521.94
2022-08-16T04:43:18.676Z,100516.66
2022-08-16T04:45:47.179Z,100520.22
2022-08-16T04:48:21.691Z,100526.84
2022-08-16T04:50:59.481Z,100514.97
2022-08-16T04:53:41.218Z,100523.13
2022-08-16T04:56:11.616Z,100525.00
2022-08-16T04:58:46.121Z,100525.16
2022-08-16T05:01:18.143Z,100525.50
2022-08-16T05:04:00.486Z,100532.63
2022-08-16T05:06:42.246Z,100528.41
2022-08-16T05:09:36.535Z,100546.78
2022-08-16T05:12:07.074Z,100542.84
2022-08-16T05:14:46.617Z,100548.47
2022-08-16T05:17:26.658Z,100547.97
2022-08-16T05:19:58.687Z,100558.31
2022-08-16T05:22:39.606Z,100560.69
2022-08-16T05:25:14.790Z,100563.09
2022-08-16T05:27:47.480Z,100562.75
2022-08-16T05:30:34.753Z,100562.41
2022-08-16T05:33:09.141Z,100561.88
2022-08-16T05:35:55.513Z,100559.81
2022-08-16T05:38:46.618Z,100564.94
2022-08-16T05:41:16.752Z,100560.69
2022-08-16T05:43:47.019Z,100566.81
2022-08-16T05:46:28.960Z,100577.16
2022-08-16T05:49:05.902Z,100591.47
2022-08-16T05:51:40.091Z,100602.66
2022-08-16T05:54:11.591Z,100595.69
2022-08-16T05:56:43.128Z,100585.28
2022-08-16T05:59:11.021Z,100585.44
2022-08-16T06:01:39.641Z,100587.84
2022-08-16T06:04:13.618Z,100583.09
2022-08-16T06:06:57.597Z,100582.56
2022-08-16T06:09:42.896Z,100576.94
2022-08-16T06:12:27.472Z,100583.94
2022-08-16T06:15:04.537Z,100586.13
2022-08-16T06:17:42.533Z,100589.53
2022-08-16T06:20:24.327Z,100597.16
2022-08-16T06:23:03.563Z,100593.59
2022-08-16T06:25:43.236Z,100585.22
2022-08-16T06:28:17.131Z,100590.66
2022-08-16T06:30:59.814Z,100585.72
2022-08-16T06:33:41.775Z,100596.28
2022-08-16T06:36:14.149Z,100591.31
2022-08-16T06:38:52.314Z,100588.91
2022-08-16T06:41:44.221Z,100591.47
2022-08-16T06:44:24.434Z,100593.81
2022-08-16T06:46:57.474Z,100598.75
2022-08-16T06:49:31.413Z,100613.72
2022-08-16T06:52:03.219Z,100612.19
2022-08-16T06:54:36.550Z,100610.78
2022-08-16T06:57:06.072Z,100605.81
2022-08-16T06:59:52.207Z,100608.88
2022-08-16T07:02:33.369Z,100617.91
2022-08-16T07:05:02.302Z,100626.59
2022-08-16T07:07:34.236Z,100627.94
2022-08-16T07:10:08.676Z,100629.94
2022-08-16T07:12:47.064Z,100618.88
2022-08-16T07:15:18.832Z,100622.94
2022-08-16T07:17:49.845Z,100614.41
2022-08-16T07:20:34.907Z,100608.59
2022-08-16T07:23:13.406Z,100608.88
2022-08-16T07:25:51.935Z,100607.88
2022-08-16T07:28:24.251Z,100608.72
2022-08-16T07:30:54.108Z,100602.69
2022-08-16T07:33:51.252Z,100608.63
2022-08-16T07:36:22.693Z,100614.56
2022-08-16T07:38:52.308Z,100613.00
2022-08-16T07:41:20.343Z,100619.25
2022-08-16T07:43:52.722Z,100621.91
2022-08-16T07:46:39.344Z,100627.84
2022-08-16T07:49:18.329Z,100631.13
2022-08-16T07:51:46.753Z,100625.78
2022-08-16T07:54:21.376Z,100629.63
2022-08-16T07:57:01.590Z,100630.97
2022-08-16T07:59:42.745Z,100629.22
2022-08-16T08:02:20.491Z,100628.25
2022-08-16T08:04:51.875Z,100627.22
2022-08-16T08:07:19.265Z,100624.13
2022-08-16T08:09:50.075Z,100626.31
2022-08-16T08:12:32.592Z,100623.69
2022-08-16T08:15:10.955Z,100625.09
2022-08-16T08:17:43.729Z,100631.03
2022-08-16T08:20:33.699Z,100627.28
2022-08-16T08:23:02.001Z,100625.19
2022-08-16T08:25:54.873Z,100631.72
2022-08-16T08:28:23.282Z,100631.34
2022-08-16T08:31:01.277Z,100623.72
2022-08-16T08:33:33.997Z,100628.53
2022-08-16T08:36:07.335Z,100630.50
2022-08-16T08:38:44.925Z,100633.34
2022-08-16T08:41:18.279Z,100628.34
2022-08-16T08:43:50.406Z,100628.63
2022-08-16T08:46:21.488Z,100631.91
2022-08-16T08:49:02.190Z,100640.59
2022-08-16T08:51:38.403Z,100635.66
2022-08-16T08:54:11.398Z,100635.66
2022-08-16T08:56:45.442Z,100646.22
2022-08-16T08:59:40.929Z,100639.06
2022-08-16T09:02:11.445Z,100632.84
2022-08-16T09:04:47.490Z,100637.38
2022-08-16T09:07:18.275Z,100636.81
2022-08-16T09:09:47.748Z,100634.53
2022-08-16T09:12:36.330Z,100638.28
2022-08-16T09:15:11.492Z,100632.88
2022-08-16T09:17:52.377Z,100626.00
2022-08-16T09:20:27.667Z,100628.63
2022-08-16T09:22:56.276Z,100635.22
2022-08-16T09:25:33.867Z,100631.63
2022-08-16T09:28:09.245Z,100639.69
2022-08-16T09:30:44.234Z,100638.47
2022-08-16T09:33:20.003Z,100635.63
2022-08-16T09:35:53.628Z,100634.63
2022-08-16T09:38:31.998Z,100640.47
2022-08-16T09:41:02.034Z,100645.16
2022-08-16T09:43:59.470Z,100642.00
2022-08-16T09:46:45.785Z,100644.34
2022-08-16T09:49:04.443Z,100643.16
2022-08-16T09:51:36.841Z,100634.56
2022-08-16T09:54:09.782Z,100647.06
2022-08-16T09:56:39.609Z,100649.69
2022-08-16T09:59:25.264Z,100643.84
2022-08-16T10:01:54.483Z,100648.13
2022-08-16T10:04:29.655Z,100646.81
2022-08-16T10:07:15.177Z,100643.09
2022-08-16T10:09:54.951Z,100630.91
2022-08-16T10:12:46.502Z,100634.34
2022-08-16T10:15:23.425Z,100636.28
2022-08-16T10:18:00.331Z,100632.75
2022-08-16T10:20:39.781Z,100625.81
2022-08-16T10:23:17.115Z,100630.50
2022-08-16T10:27:20.711Z,100621.22
2022-08-16T10:28:39.660Z,100617.72
2022-08-16T10:31:11.986Z,100624.47
2022-08-16T10:33:44.680Z,100622.38
2022-08-16T10:36:39.015Z,100619.88
2022-08-16T10:39:01.539Z,100614.84
2022-08-16T10:41:29.124Z,100619.69
2022-08-16T10:43:56.761Z,100621.44
2022-08-16T10:46:39.378Z,100623.13
2022-08-16T10:49:11.818Z,100618.09
2022-08-16T10:52:02.426Z,100621.69
2022-08-16T10:54:29.829Z,100615.56
2022-08-16T10:57:04.246Z,100615.75
2022-08-16T10:59:46.878Z,100610.91
2022-08-16T11:02:58.614Z,100606.06
2022-08-16T11:05:14.312Z,100609.00
2022-08-16T11:07:52.163Z,100618.06
2022-08-16T11:16:26.318Z,100621.72
2022-08-16T11:19:05.663Z,100626.78
2022-08-16T11:24:41.617Z,100618.06
2022-08-16T11:27:21.253Z,100610.81
2022-08-16T11:29:56.129Z,100615.47
2022-08-16T11:32:31.260Z,100617.78
2022-08-16T11:35:13.677Z,100607.63
2022-08-16T11:38:46.306Z,100611.81
2022-08-16T11:40:52.198Z,100610.75
2022-08-16T11:43:28.432Z,100604.13
2022-08-16T11:45:58.363Z,100604.75
2022-08-16T11:48:33.351Z,100609.53
2022-08-16T11:51:01.916Z,100599.94
2022-08-16T11:53:35.724Z,100603.53
2022-08-16T11:56:04.120Z,100617.06
2022-08-16T11:58:34.137Z,100608.50
2022-08-16T12:01:01.863Z,100610.63
2022-08-16T12:03:34.511Z,100607.22
2022-08-16T12:06:25.347Z,100603.84
2022-08-16T12:09:01.075Z,100603.63
2022-08-16T12:11:31.391Z,100600.38
2022-08-16T12:14:05.034Z,100593.69
2022-08-16T12:16:35.702Z,100595.31
2022-08-16T12:19:06.587Z,100593.47
2022-08-16T12:21:58.253Z,100600.00
2022-08-16T12:24:27.973Z,100594.09
2022-08-16T12:26:56.288Z,100599.38
2022-08-16T12:29:25.912Z,100585.06
2022-08-16T12:32:01.301Z,100589.66
2022-08-16T12:34:50.684Z,100591.69
2022-08-16T12:37:21.855Z,100588.16
2022-08-16T12:39:56.178Z,100599.38
2022-08-16T12:42:34.674Z,100580.63
2022-08-16T12:45:07.705Z,100582.50
2022-08-16T12:51:02.654Z,100567.34
2022-08-16T12:53:32.114Z,100580.06
2022-08-16T12:56:01.241Z,100573.84
2022-08-16T12:58:49.858Z,100577.22
2022-08-16T13:01:22.633Z,100574.38
2022-08-16T13:04:11.387Z,100572.13
2022-08-16T13:06:41.098Z,100577.50
2022-08-16T13:09:21.315Z,100572.84
2022-08-16T13:12:09.733Z,100565.84
2022-08-16T13:14:42.961Z,100563.53
2022-08-16T13:17:21.186Z,100566.91
2022-08-16T13:20:09.306Z,100564.38
2022-08-16T13:22:44.211Z,100556.38
2022-08-16T13:25:19.463Z,100555.59
2022-08-16T13:28:03.506Z,100552.63
2022-08-16T13:30:41.960Z,100555.28
2022-08-16T13:33:15.811Z,100549.88
2022-08-16T13:35:55.373Z,100557.09
2022-08-16T13:38:28.184Z,100549.31
2022-08-16T13:41:02.394Z,100549.69
2022-08-16T13:43:32.518Z,100547.16
2022-08-16T13:46:04.437Z,100537.09
2022-08-16T13:48:37.101Z,100544.19
2022-08-16T13:51:15.829Z,100541.78
2022-08-16T13:53:54.296Z,100545.13
2022-08-16T13:56:25.279Z,100555.50
2022-08-16T13:58:55.087Z,100539.72
2022-08-16T14:01:23.252Z,100540.94
2022-08-16T14:03:54.537Z,100539.63
2022-08-16T14:06:22.263Z,100534.19
2022-08-16T14:08:50.218Z,100536.84
2022-08-16T14:11:27.606Z,100527.47
2022-08-16T14:13:56.600Z,100526.66
2022-08-16T14:16:33.765Z,100529.50
2022-08-16T14:19:02.598Z,100521.09
2022-08-16T14:21:34.818Z,100515.69
2022-08-16T14:24:08.107Z,100519.63
2022-08-16T14:26:50.822Z,100513.13
2022-08-16T14:29:20.247Z,100523.84
2022-08-16T14:31:53.744Z,100513.38
2022-08-16T14:34:25.790Z,100521.22
2022-08-16T14:36:57.823Z,100522.16
2022-08-16T14:39:27.879Z,100510.22
2022-08-16T14:42:11.943Z,100511.13
2022-08-16T14:44:41.289Z,100509.44
2022-08-16T14:47:08.511Z,100508.09
2022-08-16T14:49:40.510Z,100518.81
2022-08-16T14:52:20.445Z,100502.59
2022-08-16T14:55:04.250Z,100497.06
2022-08-16T14:57:31.243Z,100489.25
2022-08-16T15:00:05.608Z,100498.66
2022-08-16T15:02:36.693Z,100498.47
2022-08-16T15:05:07.366Z,100498.22
2022-08-16T15:07:44.940Z,100503.19
2022-08-16T15:10:23.952Z,100504.63
2022-08-16T15:12:58.437Z,100507.88
2022-08-16T15:15:29.144Z,100505.25
2022-08-16T15:17:57.343Z,100497.41
2022-08-16T15:20:29.940Z,100506.31
2022-08-16T15:23:04.264Z,100502.00
2022-08-16T15:25:41.029Z,100505.72
2022-08-16T15:28:31.279Z,100500.19
2022-08-16T15:31:03.346Z,100498.97
2022-08-16T15:33:34.911Z,100502.41
2022-08-16T15:36:09.724Z,100504.59
2022-08-16T15:39:01.961Z,100505.06
2022-08-16T15:41:43.519Z,100498.56
2022-08-16T15:44:22.247Z,100495.81
2022-08-16T15:46:55.439Z,100499.88
2022-08-16T15:49:37.918Z,100498.69
2022-08-16T15:52:16.295Z,100507.19
2022-08-16T15:54:53.022Z,100503.84
2022-08-16T15:57:24.959Z,100498.78
2022-08-16T15:59:55.772Z,100500.47
2022-08-16T16:02:30.863Z,100500.47
2022-08-16T16:05:01.876Z,100495.78
2022-08-16T16:07:31.405Z,100501.91
2022-08-16T16:10:00.689Z,100492.66
2022-08-16T16:12:51.202Z,100487.75
2022-08-16T16:15:22.768Z,100488.94
2022-08-16T16:17:52.367Z,100485.34
2022-08-16T16:20:24.550Z,100480.28
2022-08-16T16:23:10.335Z,100481.38
2022-08-16T16:25:44.022Z,100486.03
2022-08-16T16:29:06.376Z,100489.41
2022-08-16T16:31:08.349Z,100488.81
2022-08-16T16:33:39.887Z,100489.91
2022-08-16T16:36:10.099Z,100479.31
2022-08-16T16:38:41.918Z,100482.34
2022-08-16T16:41:11.257Z,100481.50
2022-08-16T16:43:44.139Z,100480.63
2022-08-16T16:46:32.787Z,100486.66
2022-08-16T16:49:08.495Z,100481.59
2022-08-16T16:51:40.763Z,100475.81
2022-08-16T16:54:09.368Z,100483.97
2022-08-16T16:56:40.304Z,100477.84
2022-08-16T16:59:20.122Z,100474.25
2022-08-16T17:01:59.259Z,100475.31
2022-08-16T17:04:37.194Z,100475.31
2022-08-16T17:07:10.842Z,100474.72
2022-08-16T17:09:41.272Z,100472.41
2022-08-16T17:12:14.588Z,100467.94
2022-08-16T17:14:55.740Z,100471.06
2022-08-16T17:17:24.122Z,100467.69
2022-08-16T17:19:52.029Z,100467.69
2022-08-16T17:22:23.098Z,100459.88
2022-08-16T17:24:52.808Z,100465.03
2022-08-16T17:27:32.870Z,100471.63
2022-08-16T17:30:45.273Z,100467.66
2022-08-16T17:33:13.281Z,100471.09
2022-08-16T17:35:54.974Z,100474.94
2022-08-16T17:38:38.718Z,100476.50
2022-08-16T17:41:11.352Z,100481.88
2022-08-16T17:43:44.407Z,100477.44
2022-08-16T17:46:51.710Z,100481.75
2022-08-16T17:49:02.084Z,100477.75
2022-08-16T17:51:29.608Z,100479.06
2022-08-16T17:53:57.298Z,100480.38
2022-08-16T17:56:24.702Z,100485.25
2022-08-16T17:58:51.991Z,100488.47
2022-08-16T18:01:26.165Z,100485.31
2022-08-16T18:04:07.640Z,100490.47
2022-08-16T18:06:37.810Z,100487.53
2022-08-16T18:09:05.025Z,100492.69
2022-08-16T18:11:40.704Z,100497.81
2022-08-16T18:14:10.485Z,100492.75
2022-08-16T18:16:38.180Z,100494.56
2022-08-16T18:19:05.274Z,100502.66
2022-08-16T18:21:50.699Z,100496.75
2022-08-16T18:24:20.621Z,100500.19
2022-08-16T18:26:48.680Z,100513.19
2022-08-16T18:29:16.239Z,100514.69
2022-08-16T18:31:43.314Z,100516.25
2022-08-16T18:34:10.365Z,100516.91
2022-08-16T18:36:37.635Z,100509.53
2022-08-16T18:39:04.750Z,100514.06
2022-08-16T18:41:36.933Z,100520.47
2022-08-16T18:44:25.652Z,100524.13
2022-08-16T18:46:55.067Z,100522.28
2022-08-16T18:49:22.093Z,100528.47
2022-08-16T18:51:50.768Z,100523.00
2022-08-16T18:54:18.589Z,100526.81
2022-08-16T18:56:57.110Z,100519.47
2022-08-16T18:59:27.840Z,100525.66
2022-08-16T19:02:00.578Z,100524.63
2022-08-16T19:04:55.074Z,100529.09
2022-08-16T19:07:31.089Z,100537.41
2022-08-16T19:10:01.194Z,100537.22
2022-08-16T19:12:38.477Z,100542.78
2022-08-16T19:15:18.417Z,100548.94
2022-08-16T19:17:46.694Z,100551.28
2022-08-16T19:20:18.362Z,100552.78
2022-08-16T19:25:49.109Z,100550.72
2022-08-16T19:28:50.755Z,100553.69
2022-08-16T19:31:33.374Z,100556.88
2022-08-16T19:34:01.817Z,100552.03
2022-08-16T19:36:37.119Z,100557.97
2022-08-16T19:39:09.871Z,100558.59
2022-08-16T19:41:53.046Z,100560.94
2022-08-16T19:44:22.858Z,100565.44
2022-08-16T19:46:50.697Z,100560.56
2022-08-16T19:49:17.917Z,100562.06
2022-08-16T19:51:46.876Z,100569.91
2022-08-16T19:54:14.213Z,100571.34
2022-08-16T19:56:41.222Z,100575.16
2022-08-16T19:59:40.131Z,100573.06
2022-08-16T20:01:55.496Z,100572.84
2022-08-16T20:04:23.805Z,100578.34
2022-08-16T20:06:52.313Z,100569.66
2022-08-16T20:09:21.725Z,100573.06
2022-08-16T20:11:50.913Z,100579.84
2022-08-16T20:14:25.553Z,100579.41
2022-08-16T20:16:55.676Z,100576.25
2022-08-16T20:19:23.321Z,100576.03
2022-08-16T20:21:50.381Z,100577.28
2022-08-16T20:24:33.333Z,100577.72
2022-08-16T20:27:03.150Z,100579.00
2022-08-16T20:29:30.290Z,100584.06
2022-08-16T20:31:57.755Z,100587.44
2022-08-16T20:34:24.908Z,100593.38
2022-08-16T20:36:51.935Z,100592.09
2022-08-16T20:39:18.946Z,100598.00
2022-08-16T20:41:46.028Z,100592.91
2022-08-16T20:44:13.211Z,100601.38
2022-08-16T20:46:40.502Z,100604.53
2022-08-16T20:49:10.210Z,100603.25
2022-08-16T20:51:50.811Z,100599.88
2022-08-16T20:54:22.628Z,100586.56
2022-08-16T20:56:50.791Z,100597.75
2022-08-16T20:59:18.297Z,100597.13
2022-08-16T21:01:46.875Z,100606.63
2022-08-16T21:04:22.141Z,100613.38
2022-08-16T21:06:54.113Z,100612.72
2022-08-16T21:09:29.168Z,100618.00
2022-08-16T21:11:58.894Z,100620.09
2022-08-16T21:14:25.975Z,100612.28
2022-08-16T21:16:55.946Z,100618.16
2022-08-16T21:19:23.250Z,100628.53
2022-08-16T21:21:50.316Z,100631.69
2022-08-16T21:24:17.413Z,100629.97
2022-08-16T21:26:55.044Z,100635.91
2022-08-16T21:29:38.422Z,100636.94
2022-08-16T21:32:19.549Z,100640.75
2022-08-16T21:35:09.095Z,100647.91
2022-08-16T21:37:36.150Z,100649.81
2022-08-16T21:40:06.589Z,100653.41
2022-08-16T21:42:36.464Z,100655.53
2022-08-16T21:45:04.434Z,100651.28
2022-08-16T21:47:31.347Z,100643.47
2022-08-16T21:49:58.404Z,100653.97
2022-08-16T21:52:26.712Z,100653.53
2022-08-16T21:54:56.648Z,100661.94
2022-08-16T21:57:24.443Z,100664.69
2022-08-16T21:59:53.488Z,100662.34
2022-08-16T22:02:24.258Z,100658.34
2022-08-16T22:04:51.662Z,100653.66
2022-08-16T22:07:18.817Z,100655.13
2022-08-16T22:09:47.546Z,100657.44
2022-08-16T22:12:25.518Z,100658.84
2022-08-16T22:14:52.796Z,100663.72
2022-08-16T22:17:20.019Z,100663.91
2022-08-16T22:19:47.956Z,100662.63
2022-08-16T22:22:15.117Z,100655.84
2022-08-16T22:24:42.184Z,100659.00
2022-08-16T22:27:09.649Z,100654.09
2022-08-16T22:29:38.238Z,100661.88
2022-08-16T22:32:09.786Z,100672.00
2022-08-16T22:34:36.894Z,100676.00
2022-08-16T22:37:03.926Z,100688.41
2022-08-16T22:39:31.519Z,100686.72
2022-08-16T22:41:58.885Z,100684.00
2022-08-16T22:44:26.097Z,100682.66
2022-08-16T22:46:53.062Z,100686.81
2022-08-16T22:49:20.095Z,100693.75
2022-08-16T22:51:47.347Z,100687.44
2022-08-16T22:54:43.845Z,100685.31
2022-08-16T22:57:02.025Z,100689.06
2022-08-16T22:59:30.427Z,100694.75
2022-08-16T23:01:59.541Z,100702.78
2022-08-16T23:04:26.753Z,100712.22
2022-08-16T23:06:54.150Z,100711.78
2022-08-16T23:09:21.690Z,100718.72
2022-08-16T23:11:48.741Z,100712.13
2022-08-16T23:14:16.914Z,100710.66
2022-08-16T23:16:47.033Z,100719.25
2022-08-16T23:19:15.934Z,100710.56
2022-08-16T23:21:46.899Z,100715.41
2022-08-16T23:24:19.213Z,100721.94
2022-08-16T23:26:49.019Z,100722.31
2022-08-16T23:29:25.366Z,100715.50
2022-08-16T23:31:59.122Z,100709.97
2022-08-16T23:34:28.348Z,100706.28
2022-08-16T23:36:56.398Z,100703.09
2022-08-16T23:39:24.206Z,100705.75
2022-08-16T23:41:51.957Z,100707.19
2022-08-16T23:44:55.743Z,100709.94
2022-08-16T23:47:06.289Z,100708.59
2022-08-16T23:49:56.847Z,100705.88
2022-08-16T23:52:45.330Z,100703.34
2022-08-16T23:55:09.210Z,100698.25
2022-08-16T23:57:36.190Z,100701.56
